Time;durP1;ratioP1;P1;durP2;ratioP2;P2;SDS_P1;SDS_P2;PMS_P1;PMS_P2;Temp;Humidity;BMP_temperature;BMP_pressure;BME280_temperature;BME280_humidity;BME280_pressure;Samples;Min_cycle;Max_cycle;Signal;HPM_P1;HPM_P2
2022/10/05 06:15:22;;;;;;;7.22;4.70;;;;;;;;;;10518476;23;20053;-81
2022/10/05 06:20:26;;;;;;;6.85;3.65;;;;;;;;;;10486957;28;20060;-80
2022/10/05 06:25:36;;;;;;;5.15;3.70;;;;;;;;;;10522742;28;20035;-78
2022/10/05 06:30:37;;;;;;;4.88;3.70;;;;;;;;;;10531533;28;20020;-79
2022/10/05 06:36:04;;;;;;;4.15;3.72;;;;;;;;;;10548924;28;20099;-79
2022/10/05 06:41:31;;;;;;;4.53;3.22;;;;;;;;;;10531658;28;20103;-81
2022/10/05 06:46:53;;;;;;;6.68;3.75;;;;;;;;;;10550682;28;20047;-79
2022/10/05 06:51:57;;;;;;;7.28;5.95;;;;;;;;;;10513030;28;20032;-79
2022/10/05 06:57:07;;;;;;;5.90;4.20;;;;;;;;;;10529764;28;20025;-79
2022/10/05 07:02:28;;;;;;;4.75;4.18;;;;;;;;;;10526535;28;20092;-80
2022/10/05 07:07:34;;;;;;;4.57;3.85;;;;;;;;;;10527195;28;20028;-78
2022/10/05 07:13:01;;;;;;;5.35;3.63;;;;;;;;;;10510969;28;20052;-78
2022/10/05 07:18:03;;;;;;;5.82;3.15;;;;;;;;;;10471755;28;20116;-80
2022/10/05 07:23:29;;;;;;;4.63;3.03;;;;;;;;;;10509151;28;20020;-79
2022/10/05 07:28:36;;;;;;;7.32;4.65;;;;;;;;;;10493490;28;20086;-79
2022/10/05 07:33:43;;;;;;;6.90;3.53;;;;;;;;;;10492230;28;20026;-79
2022/10/05 07:39:03;;;;;;;5.15;3.75;;;;;;;;;;10493515;28;20025;-79
2022/10/05 07:44:14;;;;;;;8.93;5.38;;;;;;;;;;10492997;28;20121;-78
2022/10/05 07:49:28;;;;;;;6.32;4.28;;;;;;;;;;10492974;28;20364;-79
2022/10/05 07:54:39;;;;;;;7.25;5.22;;;;;;;;;;10511783;28;20183;-78
2022/10/05 07:59:50;;;;;;;4.78;3.70;;;;;;;;;;10511584;28;20033;-78
2022/10/05 08:04:59;;;;;;;8.73;4.70;;;;;;;;;;10512835;28;20104;-79
2022/10/05 08:10:03;;;;;;;6.50;5.03;;;;;;;;;;10496586;28;20032;-79
2022/10/05 08:15:19;;;;;;;6.38;4.22;;;;;;;;;;10493608;28;20064;-79
2022/10/05 08:20:29;;;;;;;7.20;4.47;;;;;;;;;;10489838;28;20028;-80
2022/10/05 08:25:51;;;;;;;5.07;3.55;;;;;;;;;;10506160;28;20040;-78
2022/10/05 08:30:55;;;;;;;5.28;4.30;;;;;;;;;;10496887;28;20031;-80
2022/10/05 08:36:06;;;;;;;6.63;3.70;;;;;;;;;;10502631;28;20030;-81
2022/10/05 08:41:13;;;;;;;3.92;2.90;;;;;;;;;;10498054;28;20503;-80
2022/10/05 08:46:32;;;;;;;4.45;3.22;;;;;;;;;;10500100;28;20032;-79
2022/10/05 08:51:48;;;;;;;5.03;3.08;;;;;;;;;;10516320;28;20048;-78
2022/10/05 08:57:05;;;;;;;5.60;2.63;;;;;;;;;;10494130;28;20456;-78
2022/10/05 09:02:10;;;;;;;5.25;3.03;;;;;;;;;;10507217;28;20082;-79
2022/10/05 09:07:11;;;;;;;5.03;2.90;;;;;;;;;;10504260;28;20108;-79
2022/10/05 09:12:27;;;;;;;6.28;3.15;;;;;;;;;;10487858;28;20060;-79
2022/10/05 09:17:41;;;;;;;7.32;5.57;;;;;;;;;;10505507;28;20027;-79
2022/10/05 09:23:00;;;;;;;6.15;3.88;;;;;;;;;;10490077;28;20032;-79
2022/10/05 09:28:12;;;;;;;6.57;3.50;;;;;;;;;;10487990;28;20107;-81
2022/10/05 09:33:32;;;;;;;3.60;2.90;;;;;;;;;;10486845;28;20075;-79
2022/10/05 09:38:53;;;;;;;5.97;3.95;;;;;;;;;;10487517;28;20102;-78
2022/10/05 09:44:09;;;;;;;3.70;2.97;;;;;;;;;;10469606;28;20047;-81
2022/10/05 09:49:20;;;;;;;4.63;3.05;;;;;;;;;;10487433;28;20120;-81
2022/10/05 09:54:40;;;;;;;7.90;6.90;;;;;;;;;;10488018;28;20488;-81
2022/10/05 09:59:59;;;;;;;5.73;3.53;;;;;;;;;;10505029;28;20055;-81
2022/10/05 10:05:04;;;;;;;5.13;3.30;;;;;;;;;;10503036;28;20082;-80
2022/10/05 10:10:08;;;;;;;4.85;3.63;;;;;;;;;;10503749;28;20092;-80
2022/10/05 10:15:15;;;;;;;4.25;2.65;;;;;;;;;;10503548;28;20060;-80
2022/10/05 10:20:16;;;;;;;3.95;3.10;;;;;;;;;;10486302;28;20028;-81
2022/10/05 10:25:23;;;;;;;3.60;2.90;;;;;;;;;;10486893;28;20021;-82
2022/10/05 10:30:27;;;;;;;3.50;2.90;;;;;;;;;;10487366;28;20025;-80
2022/10/05 10:35:40;;;;;;;3.20;2.90;;;;;;;;;;10486912;28;20386;-81
2022/10/05 10:40:56;;;;;;;4.43;3.03;;;;;;;;;;10485300;28;20036;-80
2022/10/05 10:45:57;;;;;;;5.53;3.17;;;;;;;;;;10512235;28;20025;-81
2022/10/05 10:51:04;;;;;;;4.40;3.25;;;;;;;;;;10489881;28;20089;-80
2022/10/05 10:56:09;;;;;;;3.28;2.60;;;;;;;;;;10516853;28;20086;-81
2022/10/05 11:01:14;;;;;;;5.03;2.45;;;;;;;;;;10496996;28;20090;-80
2022/10/05 11:06:37;;;;;;;3.45;2.42;;;;;;;;;;10527102;28;20025;-80
2022/10/05 11:11:57;;;;;;;3.95;2.20;;;;;;;;;;10505472;28;20024;-79
2022/10/05 11:17:14;;;;;;;5.40;2.40;;;;;;;;;;10502168;28;20566;-79
2022/10/05 11:22:38;;;;;;;3.88;2.63;;;;;;;;;;10494419;28;20503;-79
2022/10/05 11:27:39;;;;;;;3.03;2.20;;;;;;;;;;10494099;28;20411;-80
2022/10/05 11:32:43;;;;;;;4.78;3.10;;;;;;;;;;10515635;28;20025;-80
2022/10/05 11:37:54;;;;;;;6.03;2.50;;;;;;;;;;10511839;28;20086;-79
2022/10/05 11:43:08;;;;;;;4.47;2.60;;;;;;;;;;10489701;28;20032;-79
2022/10/05 11:48:33;;;;;;;4.60;2.10;;;;;;;;;;10488616;28;20029;-79
2022/10/05 11:53:46;;;;;;;3.85;2.28;;;;;;;;;;10499355;28;20032;-79
2022/10/05 11:59:03;;;;;;;14.02;10.50;;;;;;;;;;10495334;28;20111;-79
2022/10/05 12:04:23;;;;;;;5.20;3.00;;;;;;;;;;10495290;28;20092;-79
2022/10/05 12:09:33;;;;;;;6.13;2.28;;;;;;;;;;10497417;28;20130;-79
2022/10/05 12:14:35;;;;;;;3.78;2.85;;;;;;;;;;10494563;23;20412;-81
2022/10/05 12:20:09;;;;;;;4.18;2.58;;;;;;;;;;10452080;28;20025;-81
2022/10/05 12:25:16;;;;;;;3.28;2.38;;;;;;;;;;10450596;28;20043;-80
2022/10/05 12:30:46;;;;;;;4.00;2.38;;;;;;;;;;10491292;28;20394;-81
2022/10/05 12:35:58;;;;;;;3.53;2.45;;;;;;;;;;10480205;28;20032;-81
2022/10/05 12:41:06;;;;;;;6.93;2.90;;;;;;;;;;10509368;28;20004;-82
2022/10/05 12:52:03;;;;;;;5.43;3.08;;;;;;;;;;10469264;28;20047;-80
2022/10/05 13:52:07;;;;;;;5.05;2.75;;;;;;;;;;10351657;28;20061;-81
2022/10/05 14:09:21;;;;;;;4.25;2.63;;;;;;;;;;10195320;29;20046;-82
2022/10/05 14:57:51;;;;;;;2.83;2.00;;;;;;;;;;10350492;28;20074;-82
2022/10/05 15:41:43;;;;;;;5.03;2.40;;;;;;;;;;10397977;28;20132;-83
2022/10/05 16:14:42;;;;;;;8.98;3.50;;;;;;;;;;10395853;28;20097;-83
2022/10/05 16:26:35;;;;;;;5.70;2.88;;;;;;;;;;10594337;23;20065;-85
2022/10/05 16:31:46;;;;;;;4.72;2.55;;;;;;;;;;10348192;28;20118;-86
2022/10/05 16:37:27;;;;;;;4.82;2.63;;;;;;;;;;10332345;28;20069;-86
2022/10/05 16:42:54;;;;;;;4.43;2.30;;;;;;;;;;10230576;28;20042;-87
2022/10/05 16:48:09;;;;;;;4.03;2.40;;;;;;;;;;10353560;28;20039;-87
2022/10/05 16:53:31;;;;;;;3.10;2.17;;;;;;;;;;10332671;28;20026;-86
2022/10/05 17:04:30;;;;;;;7.10;2.28;;;;;;;;;;10354585;28;20034;-86
2022/10/05 17:10:12;;;;;;;3.03;2.30;;;;;;;;;;10345260;28;20023;-87
2022/10/05 17:15:43;;;;;;;3.55;2.17;;;;;;;;;;10329840;28;20037;-87
2022/10/05 17:48:22;;;;;;;4.43;2.42;;;;;;;;;;10393023;28;19921;-86
2022/10/05 17:59:32;;;;;;;6.15;2.25;;;;;;;;;;10395669;28;20042;-86
2022/10/05 18:05:03;;;;;;;4.45;1.98;;;;;;;;;;10371439;28;20040;-86
2022/10/05 18:10:31;;;;;;;3.95;2.10;;;;;;;;;;10384188;28;20042;-86
